Time;durP1;ratioP1;P1;durP2;ratioP2;P2;SDS_P1;SDS_P2;PMS_P1;PMS_P2;Temp;Humidity;BMP_temperature;BMP_pressure;BME280_temperature;BME280_humidity;BME280_pressure;Samples;Min_cycle;Max_cycle;Signal;HPM_P1;HPM_P2
2023/02/28 00:01:08;;;;;;;12.88;4.75;;;;;;;-2.85;73.79;96776.22;5068741;28;20049;-73
2023/02/28 00:03:35;;;;;;;16.25;4.78;;;;;;;-2.79;74.12;96783.34;5069871;28;20056;-73
2023/02/28 00:06:02;;;;;;;13.50;5.00;;;;;;;-2.91;74.60;96773.41;5069516;28;20043;-73
2023/02/28 00:08:29;;;;;;;12.35;4.53;;;;;;;-2.90;74.41;96767.03;5069450;28;20045;-73
2023/02/28 00:10:57;;;;;;;18.05;5.30;;;;;;;-2.98;74.17;96767.31;5067839;28;20099;-73
2023/02/28 00:13:23;;;;;;;17.05;5.22;;;;;;;-3.02;74.83;96768.84;5068301;28;20396;-73
2023/02/28 00:16:00;;;;;;;12.60;4.35;;;;;;;-3.06;74.67;96766.84;5068568;28;20384;-73
2023/02/28 00:18:26;;;;;;;15.23;5.18;;;;;;;-3.12;74.75;96767.72;5068797;28;20048;-73
2023/02/28 00:20:53;;;;;;;12.05;4.40;;;;;;;-3.14;75.54;96765.25;5069503;28;20520;-74
2023/02/28 00:23:19;;;;;;;15.20;5.13;;;;;;;-3.12;76.03;96763.22;5068629;28;20040;-73
2023/02/28 00:25:46;;;;;;;14.48;4.68;;;;;;;-3.07;75.73;96760.69;5068726;28;20040;-73
2023/02/28 00:28:13;;;;;;;14.30;4.57;;;;;;;-3.07;75.32;96766.03;5072269;28;20062;-73
2023/02/28 00:30:40;;;;;;;13.70;4.75;;;;;;;-3.07;75.50;96760.69;5072916;28;20091;-73
2023/02/28 00:33:06;;;;;;;12.50;4.85;;;;;;;-3.00;75.00;96765.94;5073019;28;20048;-75
2023/02/28 00:35:33;;;;;;;12.85;4.93;;;;;;;-3.10;75.50;96765.63;5070652;28;20044;-74
2023/02/28 00:37:59;;;;;;;14.50;4.85;;;;;;;-3.02;75.43;96760.84;5072180;28;20399;-73
2023/02/28 00:40:26;;;;;;;19.35;5.22;;;;;;;-3.04;75.55;96759.41;5072628;28;20052;-73
2023/02/28 00:42:52;;;;;;;15.70;4.53;;;;;;;-3.11;76.19;96764.81;5073027;28;20051;-74
2023/02/28 00:45:20;;;;;;;14.73;4.75;;;;;;;-3.09;75.45;96761.94;5072017;28;20102;-73
2023/02/28 00:47:49;;;;;;;11.40;4.00;;;;;;;-3.11;75.66;96756.84;5072651;28;20051;-74
2023/02/28 00:50:16;;;;;;;12.93;4.47;;;;;;;-3.12;75.34;96757.88;5072420;28;20044;-73
2023/02/28 00:52:43;;;;;;;10.70;4.20;;;;;;;-3.08;76.14;96752.91;5072612;28;20048;-73
2023/02/28 00:55:10;;;;;;;12.93;4.20;;;;;;;-3.19;75.49;96760.59;5071839;28;20044;-74
2023/02/28 00:57:37;;;;;;;12.23;4.63;;;;;;;-3.28;76.32;96758.47;5072844;28;20046;-73
2023/02/28 01:00:06;;;;;;;16.38;4.80;;;;;;;-3.33;76.12;96751.13;5072149;28;20055;-74
2023/02/28 01:02:34;;;;;;;14.50;4.60;;;;;;;-3.15;76.47;96748.47;5072062;28;20102;-73
2023/02/28 01:05:00;;;;;;;16.25;5.22;;;;;;;-3.29;77.33;96751.47;5072225;28;20045;-73
2023/02/28 01:07:26;;;;;;;14.57;4.80;;;;;;;-3.16;77.37;96746.03;5072080;28;20041;-74
2023/02/28 01:09:53;;;;;;;13.90;4.82;;;;;;;-3.23;77.10;96739.97;5072263;28;20527;-74
2023/02/28 01:12:19;;;;;;;14.35;5.00;;;;;;;-3.23;77.47;96745.28;5072016;28;20508;-73
2023/02/28 01:14:46;;;;;;;12.25;4.70;;;;;;;-3.38;76.17;96736.84;5071958;28;20047;-73
2023/02/28 01:17:13;;;;;;;17.65;5.15;;;;;;;-3.33;76.44;96739.66;5071804;28;20056;-73
2023/02/28 01:19:41;;;;;;;15.25;5.30;;;;;;;-3.38;77.44;96735.00;5072077;28;20045;-73
2023/02/28 01:22:07;;;;;;;13.90;4.68;;;;;;;-3.34;76.86;96727.34;5071671;28;20499;-74
2023/02/28 01:24:34;;;;;;;16.35;5.22;;;;;;;-3.31;77.26;96726.94;5071889;28;20488;-75
2023/02/28 01:27:00;;;;;;;12.48;4.97;;;;;;;-3.24;76.34;96728.47;5072064;28;20047;-73
2023/02/28 01:29:27;;;;;;;14.77;5.28;;;;;;;-3.26;76.79;96727.09;5072003;28;20539;-74
2023/02/28 01:31:54;;;;;;;14.85;5.18;;;;;;;-3.23;76.62;96724.81;5071958;28;20419;-74
2023/02/28 01:34:20;;;;;;;19.90;5.95;;;;;;;-3.18;76.39;96726.81;5069822;28;20052;-73
2023/02/28 01:36:48;;;;;;;15.70;4.55;;;;;;;-3.17;76.25;96723.09;5072293;28;20044;-73
2023/02/28 01:39:14;;;;;;;15.23;5.55;;;;;;;-3.23;76.71;96724.00;5070626;28;20041;-74
2023/02/28 01:41:41;;;;;;;12.85;4.45;;;;;;;-3.21;76.47;96719.25;5072039;28;20044;-73
2023/02/28 01:44:28;;;;;;;9.75;4.50;;;;;;;-3.27;76.48;96723.59;5071352;28;20051;-74
2023/02/28 01:46:56;;;;;;;12.65;4.70;;;;;;;-3.30;76.93;96718.72;5072194;28;20049;-74
2023/02/28 01:49:22;;;;;;;15.68;5.57;;;;;;;-3.24;76.78;96728.47;5071535;28;20040;-73
2023/02/28 01:51:51;;;;;;;10.52;4.47;;;;;;;-3.24;77.20;96720.47;5071638;28;20470;-73
2023/02/28 01:54:21;;;;;;;19.10;5.78;;;;;;;-3.24;76.95;96711.69;5071597;28;20049;-74
2023/02/28 01:56:53;;;;;;;14.93;5.13;;;;;;;-3.32;77.91;96717.31;5072269;28;20052;-73
2023/02/28 01:59:27;;;;;;;13.82;5.03;;;;;;;-3.36;78.02;96716.94;5071771;28;20056;-73
2023/02/28 02:01:54;;;;;;;;;;;;;;;-3.37;77.32;96711.84;5069967;28;20056;-74
2023/02/28 02:04:24;;;;;;;22.23;6.25;;;;;;;-3.38;78.58;96715.53;5070238;28;19925;-73
2023/02/28 02:06:51;;;;;;;15.85;5.00;;;;;;;-3.31;78.30;96710.97;5072166;28;20051;-73
2023/02/28 02:09:17;;;;;;;14.60;5.25;;;;;;;-3.30;77.80;96712.56;5071296;28;20048;-73
2023/02/28 02:11:45;;;;;;;17.30;5.88;;;;;;;-3.28;78.48;96711.34;5071623;28;20419;-74
2023/02/28 02:14:38;;;;;;;18.13;6.55;;;;;;;-3.32;78.48;96712.81;5070977;28;20048;-74
2023/02/28 02:17:28;;;;;;;12.65;5.25;;;;;;;-3.27;78.75;96712.16;5071157;28;20044;-74
2023/02/28 02:20:36;;;;;;;16.40;5.72;;;;;;;-3.29;78.23;96714.19;5064626;28;20492;-73
2023/02/28 02:23:32;;;;;;;11.32;4.70;;;;;;;-3.27;79.00;96706.81;5065865;28;20419;-74
2023/02/28 02:26:13;;;;;;;11.50;5.57;;;;;;;-3.17;78.62;96704.44;5070350;28;20504;-73
2023/02/28 02:29:03;;;;;;;13.60;5.40;;;;;;;-3.16;78.37;96706.06;5071070;28;20217;-73
2023/02/28 02:32:00;;;;;;;20.63;6.13;;;;;;;-3.08;78.65;96700.47;5070938;28;20048;-73
2023/02/28 02:34:42;;;;;;;24.88;7.20;;;;;;;-3.08;77.90;96700.47;5068871;28;20479;-73
2023/02/28 02:37:28;;;;;;;16.00;5.40;;;;;;;-3.15;78.06;96700.50;5070179;28;20049;-73
2023/02/28 02:40:03;;;;;;;18.38;6.05;;;;;;;-3.15;78.07;96707.69;5070968;28;20060;-73
2023/02/28 02:42:37;;;;;;;17.98;6.20;;;;;;;-3.15;78.64;96705.03;5070421;28;20459;-73
2023/02/28 02:45:09;;;;;;;14.27;5.45;;;;;;;-3.05;78.25;96710.66;5070479;28;20186;-73
2023/02/28 02:47:38;;;;;;;18.48;6.22;;;;;;;-3.08;78.38;96703.13;5070622;28;20048;-73
2023/02/28 02:50:11;;;;;;;12.07;5.55;;;;;;;-3.20;79.16;96704.88;5070252;28;20454;-74
2023/02/28 02:52:43;;;;;;;22.25;6.78;;;;;;;-3.31;79.49;96706.44;5070565;28;20469;-73
2023/02/28 02:55:13;;;;;;;16.48;6.25;;;;;;;-3.25;79.69;96710.06;5070460;28;20052;-74
2023/02/28 02:57:46;;;;;;;15.70;6.28;;;;;;;-3.37;79.51;96709.19;5070744;28;20072;-74
2023/02/28 03:00:15;;;;;;;;;;;;;;;-3.31;79.86;96710.97;5070953;28;20504;-74
2023/02/28 03:02:43;;;;;;;15.52;5.75;;;;;;;-3.24;79.84;96714.34;5070035;28;19920;-74
2023/02/28 03:05:19;;;;;;;14.82;5.93;;;;;;;-3.21;79.56;96711.25;5069505;28;20411;-74
2023/02/28 03:07:45;;;;;;;15.40;6.25;;;;;;;-3.12;79.97;96709.94;5070703;28;20055;-73
2023/02/28 03:10:32;;;;;;;17.67;6.35;;;;;;;-3.23;79.78;96708.00;5070227;28;20500;-74
2023/02/28 03:13:12;;;;;;;17.73;6.45;;;;;;;-3.20;79.85;96712.88;5070325;28;20055;-73
2023/02/28 03:15:51;;;;;;;18.20;6.85;;;;;;;-3.11;79.82;96711.56;5070294;28;20488;-73
2023/02/28 03:18:26;;;;;;;14.77;6.28;;;;;;;-2.99;80.87;96707.09;5069890;28;20430;-74
2023/02/28 03:21:02;;;;;;;17.83;6.43;;;;;;;-2.97;79.93;96705.03;5070396;28;20093;-73
2023/02/28 03:23:38;;;;;;;17.58;6.28;;;;;;;-2.93;79.64;96706.19;5070022;28;20049;-73
2023/02/28 03:26:08;;;;;;;18.52;6.68;;;;;;;-2.91;79.95;96706.81;5069751;28;20048;-74
2023/02/28 03:28:45;;;;;;;17.27;6.60;;;;;;;-2.88;78.88;96708.19;5070631;28;20068;-73
2023/02/28 03:31:18;;;;;;;16.08;6.85;;;;;;;-2.97;79.51;96706.88;5069817;28;20056;-73
2023/02/28 03:33:54;;;;;;;21.52;6.95;;;;;;;-2.92;79.19;96699.84;5069443;28;20079;-73
2023/02/28 03:36:25;;;;;;;15.27;6.18;;;;;;;-2.78;79.40;96699.66;5069491;28;20045;-74
2023/02/28 03:38:56;;;;;;;19.30;6.93;;;;;;;-2.71;78.55;96706.56;5070166;28;20047;-74
2023/02/28 03:41:26;;;;;;;15.95;5.97;;;;;;;-2.64;78.70;96695.78;5069497;28;20044;-73
2023/02/28 03:43:56;;;;;;;19.05;7.05;;;;;;;-2.70;79.66;96702.03;5070043;28;20385;-74
2023/02/28 03:46:28;;;;;;;19.65;7.20;;;;;;;-2.75;79.25;96704.56;5069590;28;20507;-74
2023/02/28 03:48:58;;;;;;;16.50;6.93;;;;;;;-2.60;79.71;96706.84;5070081;28;20054;-74
2023/02/28 03:51:28;;;;;;;19.25;6.95;;;;;;;-2.63;79.56;96711.56;5069192;28;20047;-73
2023/02/28 03:53:58;;;;;;;17.35;6.53;;;;;;;-2.65;79.29;96710.16;5069948;28;20056;-74
2023/02/28 03:56:32;;;;;;;16.67;6.97;;;;;;;-2.55;79.75;96715.78;5069662;28;20040;-73
2023/02/28 03:59:03;;;;;;;17.77;7.30;;;;;;;-2.46;78.92;96718.91;5069898;28;20048;-74
2023/02/28 04:01:34;;;;;;;18.63;7.00;;;;;;;-2.42;79.48;96715.56;5070088;28;20047;-74
2023/02/28 04:04:01;;;;;;;17.83;6.93;;;;;;;-2.34;78.88;96721.66;5073760;28;20510;-73
2023/02/28 04:06:32;;;;;;;14.50;6.25;;;;;;;-2.61;77.61;96719.34;5073144;28;20127;-73
2023/02/28 04:08:59;;;;;;;16.67;7.07;;;;;;;-2.66;78.48;96724.53;5073866;28;20044;-73
2023/02/28 04:11:32;;;;;;;16.75;6.65;;;;;;;-2.57;78.31;96722.34;5073118;28;20385;-73
2023/02/28 04:13:58;;;;;;;17.07;7.17;;;;;;;-2.42;78.58;96723.56;5073929;28;20048;-74
2023/02/28 04:16:25;;;;;;;18.40;6.78;;;;;;;-2.43;78.14;96729.97;5073191;28;20044;-73
2023/02/28 04:18:51;;;;;;;19.85;6.93;;;;;;;-2.49;77.40;96725.53;5073300;28;20051;-73
2023/02/28 04:21:20;;;;;;;16.85;7.13;;;;;;;-2.46;77.04;96733.06;5073091;28;20044;-74
2023/02/28 04:23:48;;;;;;;18.38;7.40;;;;;;;-2.47;77.19;96731.44;5073999;28;20052;-73
2023/02/28 04:26:14;;;;;;;18.35;6.78;;;;;;;-2.47;77.61;96738.63;5074371;28;20503;-74
2023/02/28 04:28:41;;;;;;;16.17;7.05;;;;;;;-2.57;76.73;96739.16;5075529;28;20052;-74
2023/02/28 04:31:07;;;;;;;23.98;7.50;;;;;;;-2.33;78.04;96742.75;5073541;28;20041;-74
2023/02/28 04:33:34;;;;;;;21.73;7.60;;;;;;;-2.49;77.16;96738.88;5066318;28;20057;-73
2023/02/28 04:36:02;;;;;;;18.17;7.18;;;;;;;-2.55;77.68;96742.44;5074688;28;20056;-73
2023/02/28 04:38:29;;;;;;;19.45;7.43;;;;;;;-2.47;77.16;96739.44;5076123;28;20508;-74
2023/02/28 04:40:59;;;;;;;23.45;8.35;;;;;;;-2.53;77.24;96745.69;5079605;28;20053;-74
2023/02/28 04:43:26;;;;;;;18.40;6.97;;;;;;;-2.49;77.94;96738.88;5080960;28;20048;-74
2023/02/28 04:45:56;;;;;;;18.52;7.05;;;;;;;-2.55;77.46;96737.09;5077683;28;20044;-73
2023/02/28 04:48:23;;;;;;;17.20;7.25;;;;;;;-2.59;77.34;96741.25;5079630;28;20045;-73
2023/02/28 04:50:49;;;;;;;20.85;7.50;;;;;;;-2.56;77.77;96740.78;5077648;28;20044;-74
2023/02/28 04:53:16;;;;;;;19.42;8.50;;;;;;;-2.60;77.99;96742.31;5076625;28;20051;-74
2023/02/28 04:55:42;;;;;;;22.05;8.05;;;;;;;-2.70;78.74;96750.81;5075689;28;20059;-74
2023/02/28 04:58:10;;;;;;;17.55;6.95;;;;;;;-2.72;78.09;96739.56;5074337;28;20047;-75
2023/02/28 05:00:36;;;;;;;18.08;7.65;;;;;;;-2.68;78.04;96747.94;5073529;28;20083;-74
2023/02/28 05:03:03;;;;;;;22.08;7.82;;;;;;;-2.80;77.73;96742.53;5071066;28;20048;-74
2023/02/28 05:05:30;;;;;;;17.63;7.20;;;;;;;-2.92;77.66;96747.81;5072867;28;20427;-74
2023/02/28 05:07:57;;;;;;;18.90;7.28;;;;;;;-2.91;77.99;96749.44;5073069;28;20054;-73
2023/02/28 05:10:23;;;;;;;20.38;8.15;;;;;;;-2.90;77.83;96756.38;5072520;28;20064;-74
2023/02/28 05:12:50;;;;;;;17.17;7.35;;;;;;;-2.91;78.07;96752.09;5073063;28;20411;-74
2023/02/28 05:15:19;;;;;;;22.38;8.63;;;;;;;-2.88;78.22;96758.81;5071243;28;20131;-73
2023/02/28 05:17:45;;;;;;;23.63;7.90;;;;;;;-3.00;77.85;96764.09;5072493;28;20051;-74
2023/02/28 05:20:13;;;;;;;20.40;7.30;;;;;;;-2.91;78.50;96760.09;5072332;28;20045;-74
2023/02/28 05:22:39;;;;;;;16.58;7.03;;;;;;;-2.99;78.50;96755.06;5072912;28;20051;-74
2023/02/28 05:25:07;;;;;;;19.80;7.88;;;;;;;-2.97;78.16;96768.97;5072257;28;20049;-74
2023/02/28 05:27:34;;;;;;;19.30;7.60;;;;;;;-2.96;78.17;96767.94;5072619;28;20079;-73
2023/02/28 05:30:03;;;;;;;19.88;8.55;;;;;;;-2.89;78.00;96774.00;5072707;28;20052;-73
2023/02/28 05:32:31;;;;;;;21.17;8.85;;;;;;;-2.91;78.26;96773.41;5072054;28;20037;-73
2023/02/28 05:34:57;;;;;;;21.38;8.07;;;;;;;-3.01;78.28;96770.47;5072209;28;20043;-74
2023/02/28 05:37:24;;;;;;;20.42;8.40;;;;;;;-2.85;78.96;96778.91;5071919;28;20052;-74
2023/02/28 05:39:50;;;;;;;25.48;8.18;;;;;;;-2.89;78.83;96774.00;5072279;28;20045;-73
2023/02/28 05:42:16;;;;;;;20.13;8.10;;;;;;;-2.81;78.45;96780.91;5072121;28;20055;-74
2023/02/28 05:44:43;;;;;;;23.95;8.73;;;;;;;-3.03;78.25;96772.50;5072401;28;20048;-74
2023/02/28 05:47:09;;;;;;;18.13;8.02;;;;;;;-2.85;78.21;96778.91;5071505;28;20040;-74
2023/02/28 05:49:38;;;;;;;21.50;8.65;;;;;;;-2.81;79.06;96775.56;5072497;28;20056;-74
2023/02/28 05:52:05;;;;;;;23.38;8.57;;;;;;;-2.83;78.66;96777.63;5072094;28;20048;-74
2023/02/28 05:54:31;;;;;;;23.25;9.07;;;;;;;-2.89;78.17;96776.66;5071958;28;20053;-73
2023/02/28 05:56:58;;;;;;;21.65;8.27;;;;;;;-2.89;78.24;96784.66;5071947;28;20044;-74
2023/02/28 05:59:24;;;;;;;20.40;8.40;;;;;;;-2.95;77.89;96776.75;5071916;28;20056;-74
2023/02/28 06:01:52;;;;;;;27.42;9.38;;;;;;;-2.84;78.42;96776.00;5071594;28;20055;-73
2023/02/28 06:04:21;;;;;;;27.45;9.50;;;;;;;-2.90;78.86;96783.03;5071798;28;20040;-74
2023/02/28 06:06:49;;;;;;;18.83;8.23;;;;;;;-2.85;79.09;96779.72;5073632;28;20526;-74
2023/02/28 06:09:16;;;;;;;21.17;8.98;;;;;;;-2.95;78.82;96782.88;5075986;28;20040;-74
2023/02/28 06:11:43;;;;;;;23.30;8.60;;;;;;;-2.98;78.50;96779.84;5079128;28;20044;-73
2023/02/28 06:14:15;;;;;;;20.77;8.80;;;;;;;-2.99;78.29;96778.22;5078092;28;20712;-74
2023/02/28 06:16:42;;;;;;;22.25;8.45;;;;;;;-3.01;78.30;96780.31;5076073;28;20566;-74
2023/02/28 06:19:10;;;;;;;23.55;8.43;;;;;;;-3.00;78.23;96788.06;5074891;28;20052;-75
2023/02/28 06:21:37;;;;;;;21.52;8.82;;;;;;;-2.90;78.71;96796.38;5076716;28;20053;-74
2023/02/28 06:24:06;;;;;;;23.80;8.80;;;;;;;-2.96;78.40;96799.09;5073223;28;20182;-74
2023/02/28 06:26:32;;;;;;;21.48;8.93;;;;;;;-2.94;78.88;96803.16;5073158;28;20063;-73
2023/02/28 06:29:00;;;;;;;18.08;8.20;;;;;;;-2.88;79.30;96802.28;5073263;28;20033;-73
2023/02/28 06:31:28;;;;;;;22.67;8.98;;;;;;;-2.78;80.00;96807.09;5072772;28;20115;-73
2023/02/28 06:33:55;;;;;;;20.65;9.70;;;;;;;-2.75;79.90;96805.84;5075073;28;20040;-73
2023/02/28 06:36:22;;;;;;;19.55;8.15;;;;;;;-2.64;79.37;96805.09;5077476;28;20048;-74
2023/02/28 06:38:54;;;;;;;24.10;9.30;;;;;;;-2.67;79.07;96810.88;5076561;28;20060;-73
2023/02/28 06:41:22;;;;;;;21.58;9.30;;;;;;;-2.72;78.17;96810.72;5074744;28;20045;-74
2023/02/28 06:43:49;;;;;;;27.35;9.85;;;;;;;-2.80;77.82;96808.38;5076548;28;20052;-74
2023/02/28 06:46:15;;;;;;;23.67;9.25;;;;;;;-2.81;78.14;96812.88;5075768;28;20659;-74
2023/02/28 06:48:43;;;;;;;19.60;8.60;;;;;;;-2.72;77.89;96810.72;5073620;28;20054;-74
2023/02/28 06:51:12;;;;;;;28.02;9.90;;;;;;;-2.74;77.75;96815.47;5070386;28;20048;-74
2023/02/28 06:53:39;;;;;;;22.95;9.05;;;;;;;-2.66;77.73;96816.00;5071214;28;20048;-73
2023/02/28 06:56:07;;;;;;;22.35;9.10;;;;;;;-2.58;78.12;96817.53;5070570;28;20052;-74
2023/02/28 06:58:35;;;;;;;22.63;8.68;;;;;;;-2.60;77.31;96822.28;5070938;28;20052;-74
2023/02/28 07:01:03;;;;;;;24.58;9.05;;;;;;;-2.47;77.18;96822.09;5070406;28;20044;-74
2023/02/28 07:03:29;;;;;;;24.13;8.90;;;;;;;-2.46;76.21;96821.06;5070520;28;20052;-74
2023/02/28 07:05:57;;;;;;;17.73;8.85;;;;;;;-2.47;76.66;96827.44;5070273;28;20051;-74
2023/02/28 07:08:23;;;;;;;25.50;9.07;;;;;;;-2.44;76.87;96828.88;5070350;28;20096;-74
2023/02/28 07:10:53;;;;;;;19.15;8.50;;;;;;;-2.37;76.25;96835.72;5070597;28;20048;-74
2023/02/28 07:13:20;;;;;;;22.63;8.70;;;;;;;-2.31;75.24;96827.88;5069905;28;20068;-73
2023/02/28 07:15:55;;;;;;;23.83;8.70;;;;;;;-2.27;74.91;96829.06;5070486;28;20559;-74
2023/02/28 07:18:21;;;;;;;22.02;8.90;;;;;;;-2.37;74.83;96830.41;5069684;28;20135;-74
2023/02/28 07:20:48;;;;;;;23.77;9.52;;;;;;;-2.21;74.69;96834.31;5070264;28;20045;-74
2023/02/28 07:23:14;;;;;;;27.90;10.35;;;;;;;-2.16;74.72;96836.28;5070074;28;20055;-74
2023/02/28 07:25:41;;;;;;;24.30;8.85;;;;;;;-2.09;73.44;96831.69;5070793;28;20048;-75
2023/02/28 07:28:07;;;;;;;25.58;9.15;;;;;;;-1.99;72.52;96823.94;5070340;28;20048;-73
2023/02/28 07:30:34;;;;;;;23.73;8.93;;;;;;;-1.83;71.26;96830.50;5070797;28;20560;-73
2023/02/28 07:33:03;;;;;;;24.67;9.07;;;;;;;-1.80;71.91;96829.25;5070527;28;20036;-74
2023/02/28 07:35:29;;;;;;;22.90;9.52;;;;;;;-1.80;71.79;96834.56;5069417;28;20056;-74
2023/02/28 07:37:58;;;;;;;21.67;8.90;;;;;;;-1.55;71.00;96831.75;5069885;28;20052;-74
2023/02/28 07:40:24;;;;;;;21.92;8.95;;;;;;;-1.48;70.43;96827.09;5070243;28;20074;-74
2023/02/28 07:42:50;;;;;;;24.00;8.70;;;;;;;-1.45;70.57;96832.00;5070258;28;20074;-74
2023/02/28 07:45:17;;;;;;;24.88;9.80;;;;;;;-1.48;70.82;96830.59;5069888;28;20048;-74
2023/02/28 07:47:44;;;;;;;20.27;9.02;;;;;;;-1.26;69.70;96835.38;5070305;28;20044;-74
2023/02/28 07:50:15;;;;;;;24.48;9.30;;;;;;;-1.00;68.80;96831.44;5069702;28;20051;-74
2023/02/28 07:52:42;;;;;;;26.38;9.50;;;;;;;-0.86;67.68;96841.66;5070068;28;20051;-73
2023/02/28 07:55:10;;;;;;;20.58;9.75;;;;;;;-0.65;67.06;96842.91;5069366;28;20446;-75
2023/02/28 07:57:37;;;;;;;23.52;9.70;;;;;;;-0.55;65.93;96840.47;5070161;28;20055;-74
2023/02/28 08:00:05;;;;;;;21.70;8.73;;;;;;;-0.60;65.56;96835.00;5069726;28;20094;-75
2023/02/28 08:02:31;;;;;;;20.73;8.40;;;;;;;-0.45;65.91;96839.88;5069911;28;20040;-74
2023/02/28 08:04:57;;;;;;;22.00;9.27;;;;;;;-0.35;64.87;96834.72;5069921;28;20053;-74
2023/02/28 08:07:25;;;;;;;18.80;8.68;;;;;;;-0.11;64.65;96831.97;5069412;28;20094;-74
2023/02/28 08:09:52;;;;;;;23.90;8.63;;;;;;;0.13;62.88;96833.50;5069781;28;20051;-74
2023/02/28 08:12:18;;;;;;;23.80;8.90;;;;;;;0.02;63.40;96836.25;5069492;28;20063;-74
2023/02/28 08:14:45;;;;;;;20.70;9.52;;;;;;;0.13;62.80;96844.22;5070043;28;20053;-74
2023/02/28 08:17:12;;;;;;;25.73;9.73;;;;;;;0.22;62.45;96845.47;5069483;28;20109;-74
2023/02/28 08:19:39;;;;;;;22.52;9.55;;;;;;;0.40;61.56;96849.00;5069491;28;20123;-74
2023/02/28 08:22:05;;;;;;;26.48;9.48;;;;;;;0.55;61.08;96851.13;5069544;28;20048;-74
2023/02/28 08:24:33;;;;;;;21.13;8.65;;;;;;;1.08;60.41;96845.28;5069692;28;20048;-74
2023/02/28 08:27:00;;;;;;;22.05;9.30;;;;;;;1.96;58.91;96850.75;5069404;28;20047;-74
2023/02/28 08:29:26;;;;;;;17.08;8.40;;;;;;;2.11;55.25;96848.25;5069378;28;20041;-74
2023/02/28 08:31:53;;;;;;;18.98;8.57;;;;;;;2.18;55.73;96848.84;5069542;28;20044;-72
2023/02/28 08:34:19;;;;;;;25.88;10.55;;;;;;;1.93;55.60;96856.59;5068608;28;20040;-72
2023/02/28 08:36:46;;;;;;;19.48;8.80;;;;;;;1.48;56.39;96852.28;5069414;28;20055;-72
2023/02/28 08:39:13;;;;;;;22.63;9.82;;;;;;;1.47;57.97;96853.38;5069145;28;20090;-72
2023/02/28 08:41:43;;;;;;;20.08;8.85;;;;;;;3.09;54.71;96854.28;5069693;28;20044;-72
2023/02/28 08:44:10;;;;;;;17.25;8.48;;;;;;;3.63;52.45;96851.38;5069220;28;20128;-73
2023/02/28 08:46:36;;;;;;;19.58;9.32;;;;;;;3.98;50.45;96843.72;5069592;28;20051;-72
2023/02/28 08:49:03;;;;;;;19.27;8.73;;;;;;;4.08;51.08;96857.25;5072121;28;20056;-73
2023/02/28 08:51:30;;;;;;;18.00;8.57;;;;;;;3.86;49.54;96850.16;5072701;28;20095;-72
2023/02/28 08:53:59;;;;;;;17.95;8.25;;;;;;;3.47;50.79;96857.75;5073222;28;20048;-72
2023/02/28 08:56:27;;;;;;;21.60;9.50;;;;;;;3.07;51.23;96851.00;5072621;28;20064;-73
2023/02/28 08:58:56;;;;;;;17.17;8.18;;;;;;;3.21;51.65;96848.69;5073386;28;20051;-72
2023/02/28 09:01:26;;;;;;;20.38;9.05;;;;;;;2.90;52.26;96857.59;5072742;28;20055;-72
2023/02/28 09:03:53;;;;;;;17.27;8.75;;;;;;;2.39;53.01;96862.50;5072892;28;20118;-73
2023/02/28 09:06:22;;;;;;;17.33;8.40;;;;;;;2.68;53.28;96874.63;5072314;28;20048;-74
2023/02/28 09:08:49;;;;;;;19.45;9.15;;;;;;;2.44;52.70;96871.44;5072792;28;20045;-71
2023/02/28 09:11:16;;;;;;;18.75;8.50;;;;;;;2.60;54.00;96867.81;5072398;28;20044;-71
2023/02/28 09:13:43;;;;;;;19.05;9.15;;;;;;;2.47;54.39;96872.81;5072975;28;20048;-71
2023/02/28 09:16:12;;;;;;;21.13;9.10;;;;;;;2.61;54.82;96869.47;5072252;28;20051;-72
2023/02/28 09:18:39;;;;;;;20.92;8.68;;;;;;;1.99;54.41;96882.50;5072598;28;20045;-72
2023/02/28 09:21:07;;;;;;;20.20;8.98;;;;;;;1.77;57.23;96875.22;5072345;28;20201;-71
2023/02/28 09:23:33;;;;;;;19.65;9.68;;;;;;;1.89;57.63;96874.31;5072632;28;20098;-72
2023/02/28 09:26:00;;;;;;;19.50;9.07;;;;;;;1.82;56.47;96875.28;5072436;28;20048;-72
2023/02/28 09:28:26;;;;;;;19.02;8.70;;;;;;;2.41;55.56;96873.81;5072215;28;20048;-71
2023/02/28 09:30:55;;;;;;;21.98;8.98;;;;;;;3.63;53.22;96872.09;5072545;28;20044;-73
2023/02/28 09:33:23;;;;;;;18.58;8.95;;;;;;;3.84;50.26;96875.72;5072163;28;20055;-72
2023/02/28 09:35:51;;;;;;;20.42;8.65;;;;;;;3.87;51.19;96870.63;5072377;28;20055;-71
2023/02/28 09:38:18;;;;;;;18.40;9.25;;;;;;;3.86;50.98;96878.94;5071868;28;20450;-71
2023/02/28 09:40:49;;;;;;;20.23;9.30;;;;;;;4.39;50.82;96882.41;5072539;28;20512;-71
2023/02/28 09:43:18;;;;;;;21.60;9.18;;;;;;;4.42;49.32;96887.25;5071986;28;20462;-72
2023/02/28 09:45:50;;;;;;;21.48;9.45;;;;;;;4.50;48.74;96883.25;5072101;28;20067;-72
2023/02/28 09:48:21;;;;;;;19.08;8.82;;;;;;;4.31;50.08;96889.13;5071973;28;20393;-72
2023/02/28 09:50:52;;;;;;;20.10;9.15;;;;;;;3.56;51.05;96895.78;5072130;28;20522;-71
2023/02/28 09:53:23;;;;;;;21.15;9.18;;;;;;;3.71;51.64;96895.88;5071704;28;20052;-71
2023/02/28 09:55:54;;;;;;;16.42;8.63;;;;;;;4.59;50.54;96903.22;5072124;28;20071;-71
2023/02/28 09:58:26;;;;;;;18.83;8.40;;;;;;;5.05;48.19;96901.41;5071676;28;20118;-72
2023/02/28 10:01:01;;;;;;;18.00;8.53;;;;;;;5.19;47.86;96904.38;5071667;28;20113;-71
2023/02/28 10:03:32;;;;;;;18.90;9.15;;;;;;;5.50;46.97;96908.69;5071480;28;20036;-74
2023/02/28 10:06:07;;;;;;;14.82;8.38;;;;;;;6.01;45.37;96907.81;5071649;28;20511;-71
2023/02/28 10:08:42;;;;;;;16.08;8.88;;;;;;;6.03;45.51;96900.25;5071704;28;20053;-72
2023/02/28 10:11:12;;;;;;;15.95;8.95;;;;;;;5.35;46.22;96908.69;5071239;28;20526;-72
2023/02/28 10:13:50;;;;;;;17.98;9.15;;;;;;;4.65;47.94;96915.66;5071773;28;20048;-72
2023/02/28 10:16:21;;;;;;;21.42;9.80;;;;;;;5.17;47.62;96915.47;5071317;28;20067;-71
2023/02/28 10:18:51;;;;;;;17.27;8.80;;;;;;;5.33;46.94;96910.88;5071575;28;20043;-72
2023/02/28 10:21:24;;;;;;;17.00;9.02;;;;;;;4.95;47.03;96907.59;5071056;28;20040;-71
2023/02/28 10:23:57;;;;;;;15.70;9.05;;;;;;;5.08;47.83;96916.25;5071490;28;20052;-72
2023/02/28 10:26:27;;;;;;;19.17;9.18;;;;;;;5.00;47.85;96914.09;5070988;28;20055;-72
2023/02/28 10:28:54;;;;;;;21.38;8.45;;;;;;;5.01;47.72;96908.41;5071395;28;20053;-71
2023/02/28 10:31:21;;;;;;;14.20;8.65;;;;;;;4.71;47.80;96909.19;5070851;28;20044;-71
2023/02/28 10:33:48;;;;;;;17.27;9.07;;;;;;;4.46;50.61;96915.34;5071461;28;20044;-72
2023/02/28 10:36:17;;;;;;;25.42;10.18;;;;;;;4.34;49.97;96917.47;5070517;28;20044;-72
2023/02/28 10:38:47;;;;;;;24.80;9.68;;;;;;;3.75;49.96;96918.50;5071257;28;20040;-71
2023/02/28 10:41:15;;;;;;;23.73;8.98;;;;;;;3.37;50.71;96919.59;5070653;28;20048;-72
2023/02/28 10:43:44;;;;;;;24.23;10.10;;;;;;;3.14;50.84;96912.69;5070929;28;20045;-71
2023/02/28 10:46:25;;;;;;;22.05;9.38;;;;;;;3.19;52.52;96907.34;5070345;28;20045;-71
2023/02/28 10:49:02;;;;;;;25.88;10.32;;;;;;;3.30;53.16;96909.06;5070875;28;20048;-71
2023/02/28 10:51:36;;;;;;;36.28;10.52;;;;;;;3.39;53.47;96918.28;5070437;28;20131;-71
2023/02/28 10:54:05;;;;;;;31.00;10.48;;;;;;;3.56;51.52;96912.75;5070426;28;20049;-71
2023/02/28 10:56:33;;;;;;;21.80;9.50;;;;;;;3.52;53.28;96916.22;5070709;28;20516;-71
2023/02/28 10:59:01;;;;;;;22.85;9.10;;;;;;;3.70;52.53;96929.25;5070815;28;20124;-72
2023/02/28 11:01:38;;;;;;;24.63;9.77;;;;;;;3.88;53.13;96909.97;5070194;28;20528;-71
2023/02/28 11:04:16;;;;;;;21.05;9.00;;;;;;;4.08;51.99;96913.84;5065121;28;20128;-72
2023/02/28 11:06:43;;;;;;;21.23;9.50;;;;;;;4.41;52.44;96913.44;5070580;28;20397;-72
2023/02/28 11:09:23;;;;;;;23.10;9.45;;;;;;;4.59;50.33;96914.00;5070157;28;20052;-71
2023/02/28 11:11:50;;;;;;;23.85;9.13;;;;;;;4.22;50.49;96912.25;5070432;28;20049;-72
2023/02/28 11:14:21;;;;;;;28.38;10.68;;;;;;;3.99;51.02;96910.03;5069902;28;20509;-71
2023/02/28 11:16:49;;;;;;;23.70;10.32;;;;;;;4.15;51.10;96911.72;5070564;28;20131;-71
2023/02/28 11:19:21;;;;;;;26.55;10.45;;;;;;;4.18;51.23;96919.28;5069705;28;20062;-72
2023/02/28 11:21:55;;;;;;;45.42;10.90;;;;;;;4.34;51.45;96918.25;5070230;28;20132;-71
2023/02/28 11:24:26;;;;;;;37.75;10.20;;;;;;;4.21;51.21;96913.34;5069696;28;20168;-72
2023/02/28 11:26:53;;;;;;;31.35;10.02;;;;;;;4.46;50.29;96909.94;5070455;28;20052;-71
2023/02/28 11:29:22;;;;;;;22.75;9.82;;;;;;;4.46;49.14;96909.94;5069956;28;20052;-72
2023/02/28 11:32:10;;;;;;;19.95;9.13;;;;;;;4.54;50.95;96901.34;5068908;28;20052;-72
2023/02/28 11:34:38;;;;;;;24.80;9.63;;;;;;;4.51;49.83;96901.06;5069048;28;20044;-72
2023/02/28 11:37:11;;;;;;;24.48;9.95;;;;;;;4.55;50.53;96899.47;5069779;28;20052;-71